createdAt,value
2017-01-27T00:00:53.897Z,0
2017-01-27T00:02:07.134Z,0
2017-01-27T00:03:20.170Z,0
2017-01-27T00:04:32.812Z,0
2017-01-27T00:05:45.855Z,0
2017-01-27T00:06:58.885Z,0
2017-01-27T00:08:11.524Z,0
2017-01-27T00:09:24.150Z,0
2017-01-27T00:10:37.170Z,0
2017-01-27T00:11:50.242Z,0
2017-01-27T00:13:02.884Z,0
2017-01-27T00:14:15.912Z,0
2017-01-27T00:15:28.950Z,0
2017-01-27T00:16:42.004Z,0
2017-01-27T00:17:55.050Z,0
2017-01-27T00:19:08.071Z,0
2017-01-27T00:20:21.159Z,0
2017-01-27T00:21:34.181Z,0
2017-01-27T00:22:47.233Z,0
2017-01-27T00:23:59.729Z,0
2017-01-27T00:25:12.350Z,0
2017-01-27T00:26:24.599Z,0
2017-01-27T00:27:37.633Z,0
2017-01-27T00:28:50.655Z,0
2017-01-27T00:30:03.672Z,0
2017-01-27T00:31:15.928Z,0
2017-01-27T00:32:28.964Z,0
2017-01-27T00:33:41.996Z,0
2017-01-27T00:34:55.005Z,0
2017-01-27T00:36:08.041Z,0
2017-01-27T00:37:20.281Z,0
2017-01-27T00:38:32.905Z,0
2017-01-27T00:39:45.916Z,0
2017-01-27T00:40:58.533Z,0
2017-01-27T00:42:11.137Z,0
2017-01-27T00:43:23.760Z,0
2017-01-27T00:44:36.810Z,0
2017-01-27T00:45:49.852Z,0
2017-01-27T00:47:02.872Z,0
2017-01-27T00:48:15.920Z,0
2017-01-27T00:49:28.967Z,0
2017-01-27T00:50:41.984Z,0
2017-01-27T00:51:54.626Z,0
2017-01-27T00:53:07.669Z,0
2017-01-27T00:54:20.693Z,0
2017-01-27T00:55:33.748Z,0
2017-01-27T00:56:46.392Z,0
2017-01-27T00:57:59.438Z,0
2017-01-27T00:59:12.452Z,0
2017-01-27T01:00:25.481Z,0
2017-01-27T01:01:38.525Z,0
2017-01-27T01:02:51.527Z,0
2017-01-27T01:04:04.171Z,0
2017-01-27T01:05:16.816Z,0
2017-01-27T01:06:29.471Z,0
2017-01-27T01:07:41.734Z,0
2017-01-27T01:08:54.777Z,0
2017-01-27T01:10:07.847Z,0
2017-01-27T01:11:20.490Z,0
2017-01-27T01:12:33.140Z,0
2017-01-27T01:13:46.161Z,0
2017-01-27T01:14:58.830Z,0
2017-01-27T01:16:11.529Z,0
2017-01-27T01:17:24.540Z,0
2017-01-27T01:18:36.815Z,0
2017-01-27T01:19:49.854Z,0
2017-01-27T01:21:02.883Z,0
2017-01-27T01:22:15.906Z,0
2017-01-27T01:23:28.916Z,0
2017-01-27T01:24:41.918Z,0
2017-01-27T01:25:54.558Z,0
2017-01-27T01:27:07.587Z,0
2017-01-27T01:28:19.854Z,0
2017-01-27T01:29:32.879Z,0
2017-01-27T01:30:45.899Z,0
2017-01-27T01:31:58.546Z,0
2017-01-27T01:33:11.590Z,0
2017-01-27T01:34:24.645Z,0
2017-01-27T01:35:37.651Z,0
2017-01-27T01:36:50.683Z,0
2017-01-27T01:38:03.745Z,0
2017-01-27T01:39:15.624Z,0
2017-01-27T01:40:28.289Z,0
2017-01-27T01:41:40.529Z,0
2017-01-27T01:42:53.562Z,0
2017-01-27T01:44:06.561Z,0
2017-01-27T01:45:18.854Z,0
2017-01-27T01:46:31.890Z,0
2017-01-27T01:47:44.901Z,0
2017-01-27T01:48:57.531Z,0
2017-01-27T01:50:10.564Z,0
2017-01-27T01:51:23.585Z,0
2017-01-27T01:52:36.610Z,0
2017-01-27T01:53:49.639Z,0
2017-01-27T01:55:02.273Z,0
2017-01-27T01:56:15.317Z,0
2017-01-27T01:57:27.993Z,0
2017-01-27T01:58:41.053Z,0
2017-01-27T01:59:54.097Z,0
2017-01-27T02:01:06.348Z,0
2017-01-27T02:02:19.647Z,0
2017-01-27T02:03:32.670Z,0
2017-01-27T02:04:45.690Z,0
2017-01-27T02:05:58.323Z,0
2017-01-27T02:07:10.983Z,0
2017-01-27T02:08:23.652Z,0
2017-01-27T02:09:36.286Z,0
2017-01-27T02:10:49.358Z,0
2017-01-27T02:12:02.361Z,0
2017-01-27T02:13:15.392Z,0
2017-01-27T02:14:28.031Z,0
2017-01-27T02:15:41.043Z,0
2017-01-27T02:16:54.097Z,0
2017-01-27T02:18:06.771Z,0
2017-01-27T02:19:19.806Z,0
2017-01-27T02:20:32.828Z,0
2017-01-27T02:21:45.087Z,0
2017-01-27T02:22:58.102Z,0
2017-01-27T02:24:10.776Z,0
2017-01-27T02:25:23.833Z,0
2017-01-27T02:26:36.832Z,0
2017-01-27T02:27:49.839Z,0
2017-01-27T02:29:02.871Z,0
2017-01-27T02:30:15.906Z,0
2017-01-27T02:31:28.572Z,0
2017-01-27T02:32:41.611Z,0
2017-01-27T02:33:54.637Z,0
2017-01-27T02:35:07.913Z,0
2017-01-27T02:36:20.932Z,0
2017-01-27T02:37:33.970Z,0
2017-01-27T02:38:46.667Z,0
2017-01-27T02:39:59.740Z,0
2017-01-27T02:41:12.754Z,0
2017-01-27T02:42:25.382Z,0
2017-01-27T02:43:38.411Z,0
2017-01-27T02:44:51.446Z,0
2017-01-27T02:46:04.095Z,0
2017-01-27T02:47:16.746Z,0
2017-01-27T02:48:29.417Z,0
2017-01-27T02:49:42.065Z,0
2017-01-27T02:50:55.084Z,0
2017-01-27T02:52:07.334Z,0
2017-01-27T02:53:19.963Z,0
2017-01-27T02:54:33.010Z,0
2017-01-27T02:55:46.043Z,0
2017-01-27T02:56:59.084Z,0
2017-01-27T02:58:12.134Z,0
2017-01-27T02:59:25.176Z,0
2017-01-27T03:00:38.218Z,0
2017-01-27T03:01:51.252Z,0
2017-01-27T03:03:04.292Z,0
2017-01-27T03:04:17.337Z,0
2017-01-27T03:05:29.980Z,0
2017-01-27T03:06:43.002Z,0
2017-01-27T03:07:56.018Z,0
2017-01-27T03:09:09.046Z,0
2017-01-27T03:10:21.682Z,0
2017-01-27T03:11:34.710Z,0
2017-01-27T03:12:47.737Z,0
2017-01-27T03:14:00.772Z,0
2017-01-27T03:15:13.801Z,0
2017-01-27T03:16:26.446Z,0
2017-01-27T03:17:39.493Z,0
2017-01-27T03:18:52.538Z,0
2017-01-27T03:20:05.190Z,0
2017-01-27T03:21:17.827Z,0
2017-01-27T03:22:30.877Z,0
2017-01-27T03:23:43.136Z,0
2017-01-27T03:24:56.146Z,0
2017-01-27T03:26:09.188Z,0
2017-01-27T03:27:21.860Z,0
2017-01-27T03:28:34.502Z,0
2017-01-27T03:29:47.802Z,0
2017-01-27T03:31:00.903Z,0
2017-01-27T03:32:13.165Z,0
2017-01-27T03:33:25.811Z,0
2017-01-27T03:34:38.431Z,0
2017-01-27T03:35:51.474Z,0
2017-01-27T03:37:04.099Z,0
2017-01-27T03:38:16.735Z,0
2017-01-27T03:39:29.340Z,0
2017-01-27T03:40:42.355Z,0
2017-01-27T03:41:54.974Z,0
2017-01-27T03:43:07.624Z,0
2017-01-27T03:44:20.303Z,0
2017-01-27T03:45:32.963Z,0
2017-01-27T03:46:45.598Z,0
2017-01-27T03:47:58.666Z,0
2017-01-27T03:49:11.715Z,0
2017-01-27T03:50:23.970Z,0
2017-01-27T03:51:37.012Z,0
2017-01-27T03:52:49.650Z,0
2017-01-27T03:54:02.290Z,0
2017-01-27T03:55:14.517Z,0
2017-01-27T03:56:26.801Z,0
2017-01-27T03:57:39.822Z,0
2017-01-27T03:58:52.499Z,0
2017-01-27T04:00:05.113Z,0
2017-01-27T04:01:17.343Z,0
2017-01-27T04:02:29.593Z,0
2017-01-27T04:03:42.211Z,0
2017-01-27T04:04:55.234Z,0
2017-01-27T04:06:08.246Z,0
2017-01-27T04:07:21.272Z,0
2017-01-27T04:08:34.292Z,0
2017-01-27T04:09:46.556Z,0
2017-01-27T04:10:59.569Z,0
2017-01-27T04:12:12.626Z,0
2017-01-27T04:13:25.650Z,0
2017-01-27T04:14:38.651Z,0
2017-01-27T04:15:51.689Z,0
2017-01-27T04:17:04.739Z,0
2017-01-27T04:18:17.763Z,0
2017-01-27T04:19:30.783Z,0
2017-01-27T04:20:43.431Z,0
2017-01-27T04:21:56.465Z,0
2017-01-27T04:23:09.496Z,0
2017-01-27T04:24:22.138Z,0
2017-01-27T04:25:35.165Z,0
2017-01-27T04:26:48.235Z,0
2017-01-27T04:28:01.268Z,0
2017-01-27T04:29:14.276Z,0
2017-01-27T04:30:26.900Z,0
2017-01-27T04:31:39.919Z,0
2017-01-27T04:32:52.544Z,0
2017-01-27T04:34:05.556Z,0
2017-01-27T04:35:18.210Z,0
2017-01-27T04:36:30.830Z,0
2017-01-27T04:37:43.847Z,0
2017-01-27T04:38:56.889Z,0
2017-01-27T04:40:09.515Z,0
2017-01-27T04:41:22.174Z,0
2017-01-27T04:42:35.182Z,0
2017-01-27T04:43:48.208Z,0
2017-01-27T04:45:01.240Z,0
2017-01-27T04:46:13.776Z,0
2017-01-27T04:47:26.811Z,0
2017-01-27T04:48:39.860Z,0
2017-01-27T04:49:52.514Z,0
2017-01-27T04:51:05.529Z,0
2017-01-27T04:52:18.198Z,0
2017-01-27T04:53:31.216Z,0
2017-01-27T04:54:44.255Z,0
2017-01-27T04:55:57.254Z,0
2017-01-27T04:57:10.279Z,0
2017-01-27T04:58:23.279Z,0
2017-01-27T04:59:35.899Z,0
2017-01-27T05:00:48.916Z,0
2017-01-27T05:02:01.184Z,0
2017-01-27T05:03:13.836Z,0
2017-01-27T05:04:26.858Z,0
2017-01-27T05:05:39.867Z,0
2017-01-27T05:06:52.922Z,0
2017-01-27T05:08:05.589Z,0
2017-01-27T05:09:17.880Z,0
2017-01-27T05:10:30.883Z,0
2017-01-27T05:11:43.900Z,0
2017-01-27T05:12:56.926Z,0
2017-01-27T05:14:09.966Z,0
2017-01-27T05:15:22.628Z,0
2017-01-27T05:16:35.655Z,0
2017-01-27T05:17:48.279Z,0
2017-01-27T05:19:00.184Z,0
2017-01-27T05:20:13.231Z,0
2017-01-27T05:21:26.265Z,0
2017-01-27T05:22:39.311Z,0
2017-01-27T05:23:52.321Z,0
2017-01-27T05:25:05.337Z,0
2017-01-27T05:26:17.979Z,0
2017-01-27T05:27:31.016Z,0
2017-01-27T05:28:44.054Z,0
2017-01-27T05:29:56.945Z,0
2017-01-27T05:31:09.982Z,0
2017-01-27T05:32:23.011Z,0
2017-01-27T05:33:36.057Z,0
2017-01-27T05:34:48.674Z,0
2017-01-27T05:36:01.740Z,0
2017-01-27T05:37:14.384Z,0
2017-01-27T05:38:27.421Z,0
2017-01-27T05:39:40.458Z,0
2017-01-27T05:40:53.495Z,0
2017-01-27T05:42:06.141Z,0
2017-01-27T05:43:18.792Z,0
2017-01-27T05:44:31.815Z,0
2017-01-27T05:45:44.817Z,0
2017-01-27T05:46:57.828Z,0
2017-01-27T05:48:10.866Z,0
2017-01-27T05:49:23.917Z,0
2017-01-27T05:50:36.541Z,0
2017-01-27T05:51:49.595Z,0
2017-01-27T05:53:02.636Z,0
2017-01-27T05:54:15.662Z,0
2017-01-27T05:55:28.703Z,0
2017-01-27T05:56:41.720Z,0
2017-01-27T05:57:54.763Z,0
2017-01-27T05:59:07.019Z,0
2017-01-27T06:00:19.659Z,0
2017-01-27T06:01:32.734Z,0
2017-01-27T06:02:45.782Z,0
2017-01-27T06:03:58.803Z,0
2017-01-27T06:05:11.822Z,0
2017-01-27T06:06:24.841Z,0
2017-01-27T06:07:37.491Z,0
2017-01-27T06:08:50.533Z,0
2017-01-27T06:10:03.547Z,0
2017-01-27T06:11:16.203Z,0
2017-01-27T06:12:28.854Z,0
2017-01-27T06:13:41.859Z,0
2017-01-27T06:14:54.871Z,0
2017-01-27T06:16:07.134Z,0
2017-01-27T06:17:19.807Z,4
2017-01-27T06:18:32.829Z,0
2017-01-27T06:19:45.868Z,0
2017-01-27T06:20:58.510Z,4
2017-01-27T06:22:11.141Z,4
2017-01-27T06:23:23.394Z,4
2017-01-27T06:24:36.414Z,4
2017-01-27T06:25:49.030Z,4
2017-01-27T06:27:01.667Z,8
2017-01-27T06:28:14.327Z,8
2017-01-27T06:29:27.339Z,8
2017-01-27T06:30:40.358Z,12
2017-01-27T06:31:53.384Z,16
2017-01-27T06:33:06.430Z,16
2017-01-27T06:34:19.093Z,20
2017-01-27T06:35:31.748Z,24
2017-01-27T06:36:44.784Z,28
2017-01-27T06:37:57.035Z,36
2017-01-27T06:39:09.725Z,44
2017-01-27T06:40:21.952Z,48
2017-01-27T06:41:35.001Z,56
2017-01-27T06:42:48.025Z,64
2017-01-27T06:44:01.070Z,76
2017-01-27T06:45:13.314Z,88
2017-01-27T06:46:26.352Z,104
2017-01-27T06:47:39.403Z,120
2017-01-27T06:48:52.419Z,136
2017-01-27T06:50:05.067Z,160
2017-01-27T06:51:17.324Z,184
2017-01-27T06:52:29.632Z,204
2017-01-27T06:53:42.635Z,232
2017-01-27T06:54:55.632Z,264
2017-01-27T06:56:08.269Z,292
2017-01-27T06:57:20.894Z,328
2017-01-27T06:58:33.918Z,360
2017-01-27T06:59:46.939Z,400
2017-01-27T07:00:59.974Z,436
2017-01-27T07:02:12.969Z,476
2017-01-27T07:03:25.623Z,512
2017-01-27T07:04:38.261Z,552
2017-01-27T07:05:51.264Z,596
2017-01-27T07:07:03.915Z,640
2017-01-27T07:08:15.788Z,680
2017-01-27T07:09:28.848Z,724
2017-01-27T07:10:41.877Z,768
2017-01-27T07:11:54.497Z,820
2017-01-27T07:13:07.140Z,864
2017-01-27T07:14:20.190Z,916
2017-01-27T07:15:33.206Z,964
2017-01-27T07:16:46.228Z,1016
2017-01-27T07:17:58.853Z,1068
2017-01-27T07:19:11.873Z,1116
2017-01-27T07:20:24.909Z,1160
2017-01-27T07:21:37.520Z,1204
2017-01-27T07:22:50.558Z,1252
2017-01-27T07:24:03.195Z,1296
2017-01-27T07:25:16.215Z,1344
2017-01-27T07:26:28.844Z,1388
2017-01-27T07:27:41.873Z,1432
2017-01-27T07:28:54.515Z,1480
2017-01-27T07:30:07.192Z,1528
2017-01-27T07:31:19.859Z,1572
2017-01-27T07:32:32.502Z,1608
2017-01-27T07:33:45.523Z,1652
2017-01-27T07:34:58.574Z,1696
2017-01-27T07:36:11.587Z,1736
2017-01-27T07:37:24.585Z,1776
2017-01-27T07:38:37.227Z,1812
2017-01-27T07:39:50.249Z,1856
2017-01-27T07:41:02.523Z,1892
2017-01-27T07:42:15.171Z,1932
2017-01-27T07:43:28.210Z,1968
2017-01-27T07:44:40.856Z,2008
2017-01-27T07:45:53.903Z,2044
2017-01-27T07:47:06.551Z,2084
2017-01-27T07:48:19.186Z,2120
2017-01-27T07:49:32.211Z,2152
2017-01-27T07:50:45.239Z,2184
2017-01-27T07:51:58.261Z,2216
2017-01-27T07:53:10.174Z,2252
2017-01-27T07:54:22.830Z,2284
2017-01-27T07:55:35.448Z,2320
2017-01-27T07:56:48.460Z,2348
2017-01-27T07:58:01.504Z,2380
2017-01-27T07:59:14.537Z,2412
2017-01-27T08:00:27.554Z,2440
2017-01-27T08:01:40.183Z,2480
2017-01-27T08:02:53.221Z,2500
2017-01-27T08:04:06.258Z,2528
2017-01-27T08:05:18.487Z,2552
2017-01-27T08:06:31.532Z,2584
2017-01-27T08:07:44.551Z,2596
2017-01-27T08:08:57.202Z,2616
2017-01-27T08:10:09.871Z,2640
2017-01-27T08:11:22.908Z,2668
2017-01-27T08:12:35.587Z,2692
2017-01-27T08:13:48.629Z,2716
2017-01-27T08:15:01.284Z,2752
2017-01-27T08:16:13.899Z,2792
2017-01-27T08:17:26.904Z,2824
2017-01-27T08:18:39.516Z,2836
2017-01-27T08:19:52.537Z,2880
2017-01-27T08:21:05.162Z,2904
2017-01-27T08:22:18.207Z,2924
2017-01-27T08:23:31.243Z,2940
2017-01-27T08:24:44.271Z,2968
2017-01-27T08:25:57.291Z,2988
2017-01-27T08:27:10.339Z,3004
2017-01-27T08:28:22.987Z,3028
2017-01-27T08:29:35.259Z,3040
2017-01-27T08:30:48.329Z,3060
2017-01-27T08:32:01.346Z,3088
2017-01-27T08:33:14.393Z,3108
2017-01-27T08:34:27.393Z,3116
2017-01-27T08:35:40.388Z,3140
2017-01-27T08:36:53.004Z,3160
2017-01-27T08:38:05.655Z,3164
2017-01-27T08:39:18.721Z,3180
2017-01-27T08:40:31.742Z,3196
2017-01-27T08:41:44.762Z,3212
2017-01-27T08:42:57.401Z,3244
2017-01-27T08:44:10.032Z,3256
2017-01-27T08:45:23.058Z,3268
2017-01-27T08:46:36.124Z,3280
2017-01-27T08:47:49.135Z,3296
2017-01-27T08:49:02.166Z,3316
2017-01-27T08:50:14.788Z,3344
2017-01-27T08:51:27.804Z,3356
2017-01-27T08:52:40.846Z,3388
2017-01-27T08:53:53.878Z,3392
2017-01-27T08:55:06.910Z,3408
2017-01-27T08:56:19.919Z,3416
2017-01-27T08:57:32.930Z,3436
2017-01-27T08:58:45.947Z,3440
2017-01-27T08:59:58.942Z,3444
2017-01-27T09:01:11.198Z,3452
2017-01-27T09:02:23.471Z,3452
2017-01-27T09:03:36.131Z,3468
2017-01-27T09:04:49.176Z,3492
2017-01-27T09:06:01.814Z,3512
2017-01-27T09:07:14.851Z,3532
2017-01-27T09:08:27.116Z,3548
2017-01-27T09:09:40.144Z,3548
2017-01-27T09:10:53.183Z,3556
2017-01-27T09:12:06.213Z,3560
2017-01-27T09:13:18.860Z,3588
2017-01-27T09:14:31.886Z,3592
2017-01-27T09:15:44.916Z,3604
2017-01-27T09:16:57.522Z,3616
2017-01-27T09:18:10.543Z,3616
2017-01-27T09:19:23.215Z,3616
2017-01-27T09:20:36.264Z,3620
2017-01-27T09:21:49.306Z,3616
2017-01-27T09:23:01.939Z,3612
2017-01-27T09:24:14.222Z,3616
2017-01-27T09:25:26.482Z,3632
2017-01-27T09:26:39.094Z,3648
2017-01-27T09:27:51.736Z,3664
2017-01-27T09:29:04.358Z,3676
2017-01-27T09:30:16.979Z,3692
2017-01-27T09:31:29.247Z,3716
2017-01-27T09:32:42.282Z,3732
2017-01-27T09:33:55.315Z,3760
2017-01-27T09:35:07.953Z,3776
2017-01-27T09:36:21.009Z,3796
2017-01-27T09:37:33.649Z,3828
2017-01-27T09:38:46.719Z,3824
2017-01-27T09:39:59.736Z,3820
2017-01-27T09:41:12.767Z,3848
2017-01-27T09:42:25.401Z,3884
2017-01-27T09:43:38.436Z,3884
2017-01-27T09:44:51.107Z,3904
2017-01-27T09:46:03.387Z,3908
2017-01-27T09:47:16.041Z,3924
2017-01-27T09:48:29.086Z,3920
2017-01-27T09:49:41.736Z,3936
2017-01-27T09:50:54.745Z,3928
2017-01-27T09:52:07.379Z,3924
2017-01-27T09:53:19.645Z,3912
2017-01-27T09:54:32.684Z,3912
2017-01-27T09:55:45.672Z,3912
2017-01-27T09:56:58.308Z,3920
2017-01-27T09:58:11.353Z,3928
2017-01-27T09:59:23.995Z,3892
2017-01-27T10:00:36.638Z,3916
2017-01-27T10:01:49.263Z,3936
2017-01-27T10:03:02.315Z,3956
2017-01-27T10:04:14.983Z,3964
2017-01-27T10:05:28.007Z,3980
2017-01-27T10:06:41.030Z,3980
2017-01-27T10:07:54.071Z,3996
2017-01-27T10:09:06.338Z,4008
2017-01-27T10:10:18.194Z,4012
2017-01-27T10:11:31.195Z,4000
2017-01-27T10:12:43.823Z,3984
2017-01-27T10:13:56.842Z,3988
2017-01-27T10:15:09.077Z,3992
2017-01-27T10:16:21.727Z,3988
2017-01-27T10:17:34.007Z,4012
2017-01-27T10:18:47.280Z,4028
2017-01-27T10:20:00.326Z,4032
2017-01-27T10:21:12.997Z,4032
2017-01-27T10:22:26.093Z,4036
2017-01-27T10:23:39.122Z,4052
2017-01-27T10:24:51.764Z,4072
2017-01-27T10:26:04.403Z,4060
2017-01-27T10:27:16.656Z,4052
2017-01-27T10:28:29.680Z,4040
2017-01-27T10:29:42.719Z,4068
2017-01-27T10:30:55.764Z,4080
2017-01-27T10:32:07.996Z,4084
2017-01-27T10:33:20.258Z,4068
2017-01-27T10:34:33.334Z,4084
2017-01-27T10:35:46.381Z,4088
2017-01-27T10:36:59.001Z,4108
2017-01-27T10:38:11.644Z,4096
2017-01-27T10:39:24.291Z,4100
2017-01-27T10:40:37.560Z,4100
2017-01-27T10:41:50.575Z,4112
2017-01-27T10:43:03.594Z,4116
2017-01-27T10:44:16.628Z,4108
2017-01-27T10:45:29.652Z,4112
2017-01-27T10:46:42.308Z,4112
2017-01-27T10:47:54.941Z,4124
2017-01-27T10:49:07.574Z,4120
2017-01-27T10:50:20.219Z,4136
2017-01-27T10:51:33.245Z,4132
2017-01-27T10:52:46.298Z,4140
2017-01-27T10:53:59.342Z,4124
2017-01-27T10:55:12.359Z,4136
2017-01-27T10:56:25.006Z,4152
2017-01-27T10:57:38.048Z,4160
2017-01-27T10:58:51.098Z,4168
2017-01-27T11:00:03.744Z,4148
2017-01-27T11:01:16.008Z,4144
2017-01-27T11:02:29.039Z,4156
2017-01-27T11:03:42.093Z,4176
2017-01-27T11:04:55.124Z,4168
2017-01-27T11:06:08.193Z,4164
2017-01-27T11:07:20.074Z,4156
2017-01-27T11:08:33.093Z,4144
2017-01-27T11:09:45.356Z,4140
2017-01-27T11:10:58.401Z,4152
2017-01-27T11:12:11.052Z,4124
2017-01-27T11:13:23.319Z,4124
2017-01-27T11:14:36.365Z,4124
2017-01-27T11:15:49.020Z,4124
2017-01-27T11:17:02.038Z,4132
2017-01-27T11:18:14.305Z,4124
2017-01-27T11:19:27.398Z,4144
2017-01-27T11:20:40.443Z,4152
2017-01-27T11:21:53.493Z,4152
2017-01-27T11:23:06.153Z,4148
2017-01-27T11:24:18.435Z,4128
2017-01-27T11:25:31.482Z,4132
2017-01-27T11:26:43.355Z,4152
2017-01-27T11:27:56.376Z,4164
2017-01-27T11:29:09.037Z,4188
2017-01-27T11:30:20.944Z,4200
2017-01-27T11:31:33.964Z,4204
2017-01-27T11:32:47.000Z,4216
2017-01-27T11:34:00.055Z,4224
2017-01-27T11:35:13.080Z,4220
2017-01-27T11:36:25.713Z,4204
2017-01-27T11:37:38.789Z,4176
2017-01-27T11:38:51.830Z,4160
2017-01-27T11:40:04.527Z,4160
2017-01-27T11:41:17.580Z,4148
2017-01-27T11:42:30.614Z,4152
2017-01-27T11:43:43.627Z,4140
2017-01-27T11:44:56.265Z,4136
2017-01-27T11:46:08.933Z,4112
2017-01-27T11:47:21.583Z,4112
2017-01-27T11:48:34.631Z,4084
2017-01-27T11:49:46.887Z,4068
2017-01-27T11:50:59.918Z,4080
2017-01-27T11:52:12.553Z,4104
2017-01-27T11:53:25.583Z,4100
2017-01-27T11:54:37.860Z,4096
2017-01-27T11:55:50.495Z,4104
2017-01-27T11:57:03.525Z,4112
2017-01-27T11:58:16.543Z,4116
2017-01-27T11:59:29.590Z,4136
2017-01-27T12:00:42.636Z,4148
2017-01-27T12:01:55.663Z,4152
2017-01-27T12:03:07.530Z,4148
2017-01-27T12:04:20.573Z,4168
2017-01-27T12:05:33.617Z,4160
2017-01-27T12:06:46.629Z,4156
2017-01-27T12:07:59.657Z,4152
2017-01-27T12:09:12.697Z,4148
2017-01-27T12:10:25.715Z,4152
2017-01-27T12:11:38.372Z,4144
2017-01-27T12:12:51.394Z,4136
2017-01-27T12:14:04.439Z,4124
2017-01-27T12:15:16.700Z,4124
2017-01-27T12:16:29.727Z,4116
2017-01-27T12:17:42.373Z,4112
2017-01-27T12:18:55.418Z,4124
2017-01-27T12:20:08.460Z,4120
2017-01-27T12:21:21.470Z,4108
2017-01-27T12:22:33.780Z,4104
2017-01-27T12:23:46.430Z,4104
2017-01-27T12:24:59.448Z,4092
2017-01-27T12:26:12.482Z,4072
2017-01-27T12:27:25.506Z,4052
2017-01-27T12:28:37.762Z,4040
2017-01-27T12:29:50.410Z,4040
2017-01-27T12:31:03.456Z,4040
2017-01-27T12:32:15.751Z,4060
2017-01-27T12:33:28.797Z,4048
2017-01-27T12:34:41.468Z,4044
2017-01-27T12:35:54.115Z,4048
2017-01-27T12:37:07.162Z,4048
2017-01-27T12:38:19.795Z,4028
2017-01-27T12:39:32.827Z,4008
2017-01-27T12:40:45.486Z,4000
2017-01-27T12:41:57.721Z,3988
2017-01-27T12:43:10.728Z,3972
2017-01-27T12:44:23.375Z,3960
2017-01-27T12:45:36.035Z,3960
2017-01-27T12:46:49.052Z,3936
2017-01-27T12:48:02.078Z,3920
2017-01-27T12:49:14.336Z,3916
2017-01-27T12:50:27.390Z,3904
2017-01-27T12:51:40.431Z,3896
2017-01-27T12:52:53.074Z,3884
2017-01-27T12:54:06.136Z,3880
2017-01-27T12:55:19.163Z,3880
2017-01-27T12:56:32.207Z,3884
2017-01-27T12:57:44.889Z,3880
2017-01-27T12:58:57.957Z,3868
2017-01-27T13:00:11.011Z,3856
2017-01-27T13:01:24.043Z,3852
2017-01-27T13:02:37.071Z,3840
2017-01-27T13:03:50.095Z,3816
2017-01-27T13:05:02.363Z,3808
2017-01-27T13:06:15.388Z,3796
2017-01-27T13:07:28.052Z,3780
2017-01-27T13:08:40.701Z,3768
2017-01-27T13:09:53.751Z,3764
2017-01-27T13:11:06.402Z,3752
2017-01-27T13:12:19.070Z,3744
2017-01-27T13:13:32.084Z,3732
2017-01-27T13:14:45.100Z,3708
2017-01-27T13:15:58.144Z,3688
2017-01-27T13:17:10.774Z,3676
2017-01-27T13:18:23.436Z,3672
2017-01-27T13:19:36.468Z,3672
2017-01-27T13:20:49.510Z,3664
2017-01-27T13:22:02.549Z,3636
2017-01-27T13:23:15.599Z,3612
2017-01-27T13:24:28.630Z,3596
2017-01-27T13:25:40.895Z,3584
2017-01-27T13:26:53.934Z,3568
2017-01-27T13:28:06.964Z,3556
2017-01-27T13:29:18.840Z,3540
2017-01-27T13:30:31.898Z,3528
2017-01-27T13:31:44.560Z,3532
2017-01-27T13:32:57.592Z,3528
2017-01-27T13:34:10.646Z,3528
2017-01-27T13:35:23.296Z,3516
2017-01-27T13:36:35.985Z,3504
2017-01-27T13:37:49.074Z,3488
2017-01-27T13:39:01.729Z,3468
2017-01-27T13:40:13.616Z,3456
2017-01-27T13:41:26.661Z,3432
2017-01-27T13:42:39.738Z,3412
2017-01-27T13:43:52.380Z,3408
2017-01-27T13:45:05.423Z,3392
2017-01-27T13:46:18.465Z,3384
2017-01-27T13:47:31.525Z,3364
2017-01-27T13:48:43.778Z,3348
2017-01-27T13:49:56.414Z,3336
2017-01-27T13:51:09.067Z,3320
2017-01-27T13:52:21.735Z,3304
2017-01-27T13:53:34.786Z,3288
2017-01-27T13:54:47.798Z,3268
2017-01-27T13:56:00.836Z,3244
2017-01-27T13:57:13.510Z,3232
2017-01-27T13:58:26.185Z,3216
2017-01-27T13:59:38.807Z,3200
2017-01-27T14:00:51.823Z,3176
2017-01-27T14:02:04.473Z,3164
2017-01-27T14:03:17.116Z,3148
2017-01-27T14:04:30.144Z,3132
2017-01-27T14:05:43.180Z,3112
2017-01-27T14:06:55.813Z,3088
2017-01-27T14:08:08.877Z,3056
2017-01-27T14:09:21.526Z,3032
2017-01-27T14:10:34.569Z,3004
2017-01-27T14:11:47.666Z,2988
2017-01-27T14:13:00.714Z,2960
2017-01-27T14:14:12.966Z,2940
2017-01-27T14:15:25.596Z,2920
2017-01-27T14:16:38.611Z,2900
2017-01-27T14:17:51.295Z,2884
2017-01-27T14:19:03.948Z,2860
2017-01-27T14:20:16.988Z,2840
2017-01-27T14:21:29.258Z,2804
2017-01-27T14:22:41.929Z,2772
2017-01-27T14:23:54.955Z,2752
2017-01-27T14:25:07.221Z,2732
2017-01-27T14:26:20.233Z,2712
2017-01-27T14:27:33.243Z,2672
2017-01-27T14:28:46.283Z,2648
2017-01-27T14:29:59.306Z,2616
2017-01-27T14:31:11.950Z,2588
2017-01-27T14:32:28.041Z,2564
2017-01-27T14:33:41.092Z,2532
2017-01-27T14:34:54.155Z,2504
2017-01-27T14:36:06.400Z,2472
2017-01-27T14:37:19.057Z,2448
2017-01-27T14:38:32.096Z,2420
2017-01-27T14:39:45.145Z,2396
2017-01-27T14:40:57.790Z,2360
2017-01-27T14:42:10.069Z,2328
2017-01-27T14:43:23.108Z,2292
2017-01-27T14:44:36.050Z,2264
2017-01-27T14:45:49.084Z,2224
2017-01-27T14:47:02.118Z,2184
2017-01-27T14:48:15.152Z,2148
2017-01-27T14:49:28.205Z,2116
2017-01-27T14:50:40.444Z,2084
2017-01-27T14:51:53.459Z,2048
2017-01-27T14:53:06.104Z,2008
2017-01-27T14:54:18.746Z,1976
2017-01-27T14:55:31.810Z,1940
2017-01-27T14:56:44.484Z,1900
2017-01-27T14:57:57.539Z,1868
2017-01-27T14:59:10.180Z,1828
2017-01-27T15:00:22.445Z,1788
2017-01-27T15:01:35.477Z,1748
2017-01-27T15:02:48.510Z,1708
2017-01-27T15:04:01.543Z,1668
2017-01-27T15:05:14.210Z,1628
2017-01-27T15:06:27.251Z,1588
2017-01-27T15:07:40.301Z,1544
2017-01-27T15:08:53.365Z,1504
2017-01-27T15:10:05.994Z,1460
2017-01-27T15:11:18.631Z,1420
2017-01-27T15:12:31.660Z,1372
2017-01-27T15:13:44.685Z,1328
2017-01-27T15:14:57.706Z,1284
2017-01-27T15:16:10.366Z,1240
2017-01-27T15:17:23.398Z,1192
2017-01-27T15:18:36.456Z,1148
2017-01-27T15:19:49.490Z,1104
2017-01-27T15:21:02.515Z,1060
2017-01-27T15:22:14.780Z,1016
2017-01-27T15:23:27.804Z,968
2017-01-27T15:24:40.840Z,920
2017-01-27T15:25:53.869Z,856
2017-01-27T15:27:06.911Z,796
2017-01-27T15:28:19.178Z,740
2017-01-27T15:29:31.808Z,688
2017-01-27T15:30:44.857Z,648
2017-01-27T15:31:57.887Z,608
2017-01-27T15:33:10.511Z,568
2017-01-27T15:34:23.562Z,532
2017-01-27T15:35:36.205Z,492
2017-01-27T15:36:49.229Z,456
2017-01-27T15:38:02.241Z,416
2017-01-27T15:39:15.521Z,376
2017-01-27T15:40:28.526Z,340
2017-01-27T15:41:41.558Z,304
2017-01-27T15:42:54.600Z,276
2017-01-27T15:44:07.228Z,248
2017-01-27T15:45:20.253Z,220
2017-01-27T15:46:32.900Z,192
2017-01-27T15:47:45.592Z,172
2017-01-27T15:48:58.629Z,148
2017-01-27T15:50:11.650Z,128
2017-01-27T15:51:24.696Z,112
2017-01-27T15:52:37.728Z,96
2017-01-27T15:53:50.773Z,84
2017-01-27T15:55:03.785Z,72
2017-01-27T15:56:16.813Z,64
2017-01-27T15:57:29.831Z,52
2017-01-27T15:58:42.860Z,44
2017-01-27T15:59:55.502Z,36
2017-01-27T16:01:08.521Z,28
2017-01-27T16:02:20.793Z,24
2017-01-27T16:03:33.806Z,20
2017-01-27T16:04:46.489Z,20
2017-01-27T16:05:59.507Z,12
2017-01-27T16:07:11.803Z,12
2017-01-27T16:08:24.456Z,8
2017-01-27T16:09:37.480Z,8
2017-01-27T16:10:50.515Z,4
2017-01-27T16:12:03.558Z,8
2017-01-27T16:13:16.206Z,4
2017-01-27T16:14:29.245Z,4
2017-01-27T16:15:41.859Z,4
2017-01-27T16:16:54.897Z,4
2017-01-27T16:18:07.532Z,4
2017-01-27T16:19:19.433Z,0
2017-01-27T16:20:32.083Z,0
2017-01-27T16:21:45.085Z,0
2017-01-27T16:22:58.125Z,0
2017-01-27T16:24:11.157Z,0
2017-01-27T16:25:23.814Z,0
2017-01-27T16:26:36.856Z,0
2017-01-27T16:27:49.884Z,0
2017-01-27T16:29:02.934Z,0
2017-01-27T16:30:15.980Z,0
2017-01-27T16:31:29.017Z,0
2017-01-27T16:32:42.045Z,0
2017-01-27T16:33:55.066Z,0
2017-01-27T16:35:07.713Z,0
2017-01-27T16:36:20.755Z,0
2017-01-27T16:37:33.778Z,0
2017-01-27T16:38:47.059Z,0
2017-01-27T16:39:59.715Z,0
2017-01-27T16:41:12.772Z,0
2017-01-27T16:42:25.795Z,0
2017-01-27T16:43:38.824Z,0
2017-01-27T16:44:51.858Z,0
2017-01-27T16:46:04.889Z,0
2017-01-27T16:47:17.186Z,0
2017-01-27T16:48:30.219Z,0
2017-01-27T16:49:43.302Z,0
2017-01-27T16:50:56.332Z,0
2017-01-27T16:52:09.027Z,0
2017-01-27T16:53:21.673Z,0
2017-01-27T16:54:34.314Z,0
2017-01-27T16:55:47.367Z,0
2017-01-27T16:57:00.408Z,0
2017-01-27T16:58:13.435Z,0